sensor_id;sensor_type;location;lat;lon;timestamp;temperature;humidity
11666;DHT22;5889;51.350;6.708;2023-02-25T00:00:05;3.90;99.90
11666;DHT22;5889;51.350;6.708;2023-02-25T00:02:45;3.90;99.90
11666;DHT22;5889;51.350;6.708;2023-02-25T00:05:12;3.90;99.90
11666;DHT22;5889;51.350;6.708;2023-02-25T00:07:40;3.90;99.90
11666;DHT22;5889;51.350;6.708;2023-02-25T00:10:08;3.80;99.90
11666;DHT22;5889;51.350;6.708;2023-02-25T00:12:38;3.80;99.90
11666;DHT22;5889;51.350;6.708;2023-02-25T00:15:06;3.80;99.90
11666;DHT22;5889;51.350;6.708;2023-02-25T00:17:34;3.80;99.90
11666;DHT22;5889;51.350;6.708;2023-02-25T00:20:05;3.80;99.90
11666;DHT22;5889;51.350;6.708;2023-02-25T00:22:34;3.80;99.90
11666;DHT22;5889;51.350;6.708;2023-02-25T00:25:01;3.80;99.90
11666;DHT22;5889;51.350;6.708;2023-02-25T00:27:29;3.80;99.90
11666;DHT22;5889;51.350;6.708;2023-02-25T00:29:56;3.80;99.90
11666;DHT22;5889;51.350;6.708;2023-02-25T00:32:23;3.80;99.90
11666;DHT22;5889;51.350;6.708;2023-02-25T00:34:50;3.80;99.90
11666;DHT22;5889;51.350;6.708;2023-02-25T00:37:19;3.80;99.90
11666;DHT22;5889;51.350;6.708;2023-02-25T00:39:46;3.80;99.90
11666;DHT22;5889;51.350;6.708;2023-02-25T00:42:14;3.70;99.90
11666;DHT22;5889;51.350;6.708;2023-02-25T00:44:43;3.70;99.90
11666;DHT22;5889;51.350;6.708;2023-02-25T00:47:11;3.70;99.90
11666;DHT22;5889;51.350;6.708;2023-02-25T00:49:38;3.70;99.90
11666;DHT22;5889;51.350;6.708;2023-02-25T00:52:05;3.70;99.90
11666;DHT22;5889;51.350;6.708;2023-02-25T00:54:34;3.70;99.90
11666;DHT22;5889;51.350;6.708;2023-02-25T00:57:01;3.60;99.90
11666;DHT22;5889;51.350;6.708;2023-02-25T00:59:28;3.60;99.90
11666;DHT22;5889;51.350;6.708;2023-02-25T01:01:55;3.60;99.90
11666;DHT22;5889;51.350;6.708;2023-02-25T01:04:22;3.60;99.90
11666;DHT22;5889;51.350;6.708;2023-02-25T01:06:50;3.60;99.90
11666;DHT22;5889;51.350;6.708;2023-02-25T01:09:18;3.60;99.90
11666;DHT22;5889;51.350;6.708;2023-02-25T01:11:48;3.60;99.90
11666;DHT22;5889;51.350;6.708;2023-02-25T01:14:17;3.60;99.90
11666;DHT22;5889;51.350;6.708;2023-02-25T01:16:45;3.50;99.90
11666;DHT22;5889;51.350;6.708;2023-02-25T01:19:14;3.60;99.90
11666;DHT22;5889;51.350;6.708;2023-02-25T01:21:43;3.50;99.90
11666;DHT22;5889;51.350;6.708;2023-02-25T01:24:13;3.50;99.90
11666;DHT22;5889;51.350;6.708;2023-02-25T01:26:42;3.50;99.90
11666;DHT22;5889;51.350;6.708;2023-02-25T01:29:13;3.50;99.90
11666;DHT22;5889;51.350;6.708;2023-02-25T01:31:40;3.50;99.90
11666;DHT22;5889;51.350;6.708;2023-02-25T01:34:09;3.50;99.90
11666;DHT22;5889;51.350;6.708;2023-02-25T01:36:38;3.50;99.90
11666;DHT22;5889;51.350;6.708;2023-02-25T01:39:05;3.50;99.90
11666;DHT22;5889;51.350;6.708;2023-02-25T01:41:33;3.50;99.90
11666;DHT22;5889;51.350;6.708;2023-02-25T01:44:13;3.50;99.90
11666;DHT22;5889;51.350;6.708;2023-02-25T01:46:42;3.50;99.90
11666;DHT22;5889;51.350;6.708;2023-02-25T01:49:12;3.50;99.90
11666;DHT22;5889;51.350;6.708;2023-02-25T01:51:41;3.50;99.90
11666;DHT22;5889;51.350;6.708;2023-02-25T01:54:10;3.50;99.90
11666;DHT22;5889;51.350;6.708;2023-02-25T01:56:40;3.50;99.90
11666;DHT22;5889;51.350;6.708;2023-02-25T01:59:08;3.50;99.90
11666;DHT22;5889;51.350;6.708;2023-02-25T02:01:37;3.50;99.90
11666;DHT22;5889;51.350;6.708;2023-02-25T02:04:07;3.50;99.90
11666;DHT22;5889;51.350;6.708;2023-02-25T02:06:36;3.40;99.90
11666;DHT22;5889;51.350;6.708;2023-02-25T02:09:05;3.30;99.90
11666;DHT22;5889;51.350;6.708;2023-02-25T02:11:32;3.30;99.90
11666;DHT22;5889;51.350;6.708;2023-02-25T02:14:01;3.30;99.90
11666;DHT22;5889;51.350;6.708;2023-02-25T02:19:30;3.20;99.90
11666;DHT22;5889;51.350;6.708;2023-02-25T02:22:07;3.20;99.90
11666;DHT22;5889;51.350;6.708;2023-02-25T02:25:04;3.20;99.90
11666;DHT22;5889;51.350;6.708;2023-02-25T02:27:53;3.20;99.90
11666;DHT22;5889;51.350;6.708;2023-02-25T02:30:46;3.20;99.90
11666;DHT22;5889;51.350;6.708;2023-02-25T02:33:20;3.10;99.90
11666;DHT22;5889;51.350;6.708;2023-02-25T02:35:55;3.20;99.90
11666;DHT22;5889;51.350;6.708;2023-02-25T02:38:32;3.20;99.90
11666;DHT22;5889;51.350;6.708;2023-02-25T02:41:06;3.20;99.90
11666;DHT22;5889;51.350;6.708;2023-02-25T02:43:40;3.30;99.90
11666;DHT22;5889;51.350;6.708;2023-02-25T02:46:13;3.30;99.90
11666;DHT22;5889;51.350;6.708;2023-02-25T02:48:46;3.30;99.90
11666;DHT22;5889;51.350;6.708;2023-02-25T02:51:18;3.20;99.90
11666;DHT22;5889;51.350;6.708;2023-02-25T02:53:51;3.30;99.90
11666;DHT22;5889;51.350;6.708;2023-02-25T02:56:20;3.30;99.90
11666;DHT22;5889;51.350;6.708;2023-02-25T02:58:51;3.30;99.90
11666;DHT22;5889;51.350;6.708;2023-02-25T03:01:22;3.30;99.90
11666;DHT22;5889;51.350;6.708;2023-02-25T03:03:54;3.30;99.90
11666;DHT22;5889;51.350;6.708;2023-02-25T03:06:27;3.30;99.90
11666;DHT22;5889;51.350;6.708;2023-02-25T03:09:01;3.40;99.90
11666;DHT22;5889;51.350;6.708;2023-02-25T03:11:29;3.40;99.90
11666;DHT22;5889;51.350;6.708;2023-02-25T03:13:56;3.40;99.90
11666;DHT22;5889;51.350;6.708;2023-02-25T03:16:27;3.40;99.90
11666;DHT22;5889;51.350;6.708;2023-02-25T03:18:59;3.40;99.90
11666;DHT22;5889;51.350;6.708;2023-02-25T03:21:34;3.40;99.90
11666;DHT22;5889;51.350;6.708;2023-02-25T03:24:05;3.40;99.90
11666;DHT22;5889;51.350;6.708;2023-02-25T03:26:34;3.40;99.90
11666;DHT22;5889;51.350;6.708;2023-02-25T03:29:01;3.40;99.90
11666;DHT22;5889;51.350;6.708;2023-02-25T03:31:31;3.40;99.90
11666;DHT22;5889;51.350;6.708;2023-02-25T03:34:03;3.50;99.90
11666;DHT22;5889;51.350;6.708;2023-02-25T03:36:36;3.40;99.90
11666;DHT22;5889;51.350;6.708;2023-02-25T03:39:08;3.40;99.90
11666;DHT22;5889;51.350;6.708;2023-02-25T03:41:38;3.50;99.90
11666;DHT22;5889;51.350;6.708;2023-02-25T03:44:09;3.50;99.90
11666;DHT22;5889;51.350;6.708;2023-02-25T03:46:39;3.50;99.90
11666;DHT22;5889;51.350;6.708;2023-02-25T03:49:11;3.50;99.90
11666;DHT22;5889;51.350;6.708;2023-02-25T03:51:41;3.50;99.90
11666;DHT22;5889;51.350;6.708;2023-02-25T03:54:09;3.50;99.90
11666;DHT22;5889;51.350;6.708;2023-02-25T03:56:41;3.50;99.90
11666;DHT22;5889;51.350;6.708;2023-02-25T03:59:09;3.50;99.90
11666;DHT22;5889;51.350;6.708;2023-02-25T04:01:43;3.50;99.90
11666;DHT22;5889;51.350;6.708;2023-02-25T04:04:16;3.50;99.90
11666;DHT22;5889;51.350;6.708;2023-02-25T04:06:43;3.50;99.90
11666;DHT22;5889;51.350;6.708;2023-02-25T04:09:10;3.50;99.90
11666;DHT22;5889;51.350;6.708;2023-02-25T04:11:37;3.50;99.90
11666;DHT22;5889;51.350;6.708;2023-02-25T04:14:04;3.50;99.90
11666;DHT22;5889;51.350;6.708;2023-02-25T04:16:31;3.50;99.90
11666;DHT22;5889;51.350;6.708;2023-02-25T04:18:58;3.50;99.90
11666;DHT22;5889;51.350;6.708;2023-02-25T04:21:29;3.50;99.90
11666;DHT22;5889;51.350;6.708;2023-02-25T04:23:57;3.50;99.90
11666;DHT22;5889;51.350;6.708;2023-02-25T04:26:24;3.60;99.90
11666;DHT22;5889;51.350;6.708;2023-02-25T04:28:51;3.60;99.90
11666;DHT22;5889;51.350;6.708;2023-02-25T04:31:18;3.60;99.90
11666;DHT22;5889;51.350;6.708;2023-02-25T04:33:45;3.60;99.90
11666;DHT22;5889;51.350;6.708;2023-02-25T04:36:22;3.60;99.90
11666;DHT22;5889;51.350;6.708;2023-02-25T04:38:51;3.60;99.90
11666;DHT22;5889;51.350;6.708;2023-02-25T04:41:18;3.60;99.90
11666;DHT22;5889;51.350;6.708;2023-02-25T04:43:45;3.60;99.90
11666;DHT22;5889;51.350;6.708;2023-02-25T04:46:12;3.70;99.90
11666;DHT22;5889;51.350;6.708;2023-02-25T04:48:39;3.60;99.90
11666;DHT22;5889;51.350;6.708;2023-02-25T04:51:08;3.60;99.90
11666;DHT22;5889;51.350;6.708;2023-02-25T04:53:35;3.60;99.90
11666;DHT22;5889;51.350;6.708;2023-02-25T04:56:05;3.60;99.90
11666;DHT22;5889;51.350;6.708;2023-02-25T04:58:33;3.70;99.90
11666;DHT22;5889;51.350;6.708;2023-02-25T05:01:01;3.60;99.90
11666;DHT22;5889;51.350;6.708;2023-02-25T05:03:30;3.70;99.90
11666;DHT22;5889;51.350;6.708;2023-02-25T05:05:58;3.70;99.90
11666;DHT22;5889;51.350;6.708;2023-02-25T05:08:24;3.70;99.90
11666;DHT22;5889;51.350;6.708;2023-02-25T05:10:51;3.60;99.90
11666;DHT22;5889;51.350;6.708;2023-02-25T05:13:20;3.70;99.90
11666;DHT22;5889;51.350;6.708;2023-02-25T05:15:48;3.70;99.90
11666;DHT22;5889;51.350;6.708;2023-02-25T05:18:15;3.70;99.90
11666;DHT22;5889;51.350;6.708;2023-02-25T05:20:43;3.70;99.90
11666;DHT22;5889;51.350;6.708;2023-02-25T05:23:10;3.70;99.90
11666;DHT22;5889;51.350;6.708;2023-02-25T05:25:38;3.70;99.90
11666;DHT22;5889;51.350;6.708;2023-02-25T05:28:06;3.60;99.90
11666;DHT22;5889;51.350;6.708;2023-02-25T05:30:36;3.60;99.90
11666;DHT22;5889;51.350;6.708;2023-02-25T05:33:04;3.60;99.90
11666;DHT22;5889;51.350;6.708;2023-02-25T05:35:31;3.60;99.90
11666;DHT22;5889;51.350;6.708;2023-02-25T05:37:58;3.60;99.90
11666;DHT22;5889;51.350;6.708;2023-02-25T05:40:25;3.60;99.90
11666;DHT22;5889;51.350;6.708;2023-02-25T05:42:52;3.60;99.90
11666;DHT22;5889;51.350;6.708;2023-02-25T05:45:19;3.60;99.90
11666;DHT22;5889;51.350;6.708;2023-02-25T05:47:48;3.60;99.90
11666;DHT22;5889;51.350;6.708;2023-02-25T05:50:15;3.60;99.90
11666;DHT22;5889;51.350;6.708;2023-02-25T05:52:42;3.70;99.90
11666;DHT22;5889;51.350;6.708;2023-02-25T05:55:10;3.60;99.90
11666;DHT22;5889;51.350;6.708;2023-02-25T05:57:37;3.60;99.90
11666;DHT22;5889;51.350;6.708;2023-02-25T06:00:04;3.60;99.90
11666;DHT22;5889;51.350;6.708;2023-02-25T06:02:34;3.60;99.90
11666;DHT22;5889;51.350;6.708;2023-02-25T06:05:03;3.60;99.90
11666;DHT22;5889;51.350;6.708;2023-02-25T06:07:31;3.60;99.90
11666;DHT22;5889;51.350;6.708;2023-02-25T06:09:59;3.60;99.90
11666;DHT22;5889;51.350;6.708;2023-02-25T06:12:28;3.60;99.90
11666;DHT22;5889;51.350;6.708;2023-02-25T06:14:55;3.50;99.90
11666;DHT22;5889;51.350;6.708;2023-02-25T06:17:22;3.60;99.90
11666;DHT22;5889;51.350;6.708;2023-02-25T06:19:50;3.60;99.90
11666;DHT22;5889;51.350;6.708;2023-02-25T06:22:19;3.60;99.90
11666;DHT22;5889;51.350;6.708;2023-02-25T06:24:46;3.60;99.90
11666;DHT22;5889;51.350;6.708;2023-02-25T06:27:14;3.60;99.90
11666;DHT22;5889;51.350;6.708;2023-02-25T06:29:41;3.60;99.90
11666;DHT22;5889;51.350;6.708;2023-02-25T06:32:08;3.60;99.90
11666;DHT22;5889;51.350;6.708;2023-02-25T06:34:36;3.60;99.90
11666;DHT22;5889;51.350;6.708;2023-02-25T06:37:03;3.60;99.90
11666;DHT22;5889;51.350;6.708;2023-02-25T06:39:32;3.60;99.90
11666;DHT22;5889;51.350;6.708;2023-02-25T06:41:59;3.60;99.90
11666;DHT22;5889;51.350;6.708;2023-02-25T06:44:26;3.60;99.90
11666;DHT22;5889;51.350;6.708;2023-02-25T06:46:54;3.60;99.90
11666;DHT22;5889;51.350;6.708;2023-02-25T06:49:21;3.60;99.90
11666;DHT22;5889;51.350;6.708;2023-02-25T06:51:48;3.60;99.90
11666;DHT22;5889;51.350;6.708;2023-02-25T06:54:16;3.60;99.90
11666;DHT22;5889;51.350;6.708;2023-02-25T06:56:44;3.60;99.90
11666;DHT22;5889;51.350;6.708;2023-02-25T06:59:11;3.60;99.90
11666;DHT22;5889;51.350;6.708;2023-02-25T07:01:38;3.60;99.90
11666;DHT22;5889;51.350;6.708;2023-02-25T07:04:05;3.70;99.90
11666;DHT22;5889;51.350;6.708;2023-02-25T07:06:32;3.60;99.90
11666;DHT22;5889;51.350;6.708;2023-02-25T07:08:59;3.60;99.90
11666;DHT22;5889;51.350;6.708;2023-02-25T07:11:29;3.60;99.90
11666;DHT22;5889;51.350;6.708;2023-02-25T07:13:59;3.60;99.90
11666;DHT22;5889;51.350;6.708;2023-02-25T07:16:27;3.60;99.90
11666;DHT22;5889;51.350;6.708;2023-02-25T07:18:54;3.70;99.90
11666;DHT22;5889;51.350;6.708;2023-02-25T07:21:22;3.70;99.90
11666;DHT22;5889;51.350;6.708;2023-02-25T07:23:53;3.70;99.90
11666;DHT22;5889;51.350;6.708;2023-02-25T07:26:20;3.70;99.90
11666;DHT22;5889;51.350;6.708;2023-02-25T07:28:54;3.70;99.90
11666;DHT22;5889;51.350;6.708;2023-02-25T07:31:23;3.80;99.90
11666;DHT22;5889;51.350;6.708;2023-02-25T07:33:51;3.80;99.90
11666;DHT22;5889;51.350;6.708;2023-02-25T07:36:18;3.80;99.90
11666;DHT22;5889;51.350;6.708;2023-02-25T07:38:45;3.90;99.90
11666;DHT22;5889;51.350;6.708;2023-02-25T07:41:15;3.90;99.90
11666;DHT22;5889;51.350;6.708;2023-02-25T07:43:42;3.90;99.90
11666;DHT22;5889;51.350;6.708;2023-02-25T07:46:10;3.90;99.90
11666;DHT22;5889;51.350;6.708;2023-02-25T07:48:39;3.90;99.90
11666;DHT22;5889;51.350;6.708;2023-02-25T07:51:07;3.90;99.90
11666;DHT22;5889;51.350;6.708;2023-02-25T07:53:34;3.90;99.90
11666;DHT22;5889;51.350;6.708;2023-02-25T07:56:01;4.00;99.90
11666;DHT22;5889;51.350;6.708;2023-02-25T07:58:30;4.00;99.90
11666;DHT22;5889;51.350;6.708;2023-02-25T08:00:57;4.00;99.90
11666;DHT22;5889;51.350;6.708;2023-02-25T08:03:25;4.00;99.90
11666;DHT22;5889;51.350;6.708;2023-02-25T08:05:53;4.00;99.90
11666;DHT22;5889;51.350;6.708;2023-02-25T08:08:20;4.00;99.90
11666;DHT22;5889;51.350;6.708;2023-02-25T08:10:48;4.10;99.90
11666;DHT22;5889;51.350;6.708;2023-02-25T08:13:14;4.10;99.90
11666;DHT22;5889;51.350;6.708;2023-02-25T08:15:42;4.10;99.90
11666;DHT22;5889;51.350;6.708;2023-02-25T08:18:09;4.00;99.90
11666;DHT22;5889;51.350;6.708;2023-02-25T08:20:37;4.00;99.90
11666;DHT22;5889;51.350;6.708;2023-02-25T08:23:05;3.90;99.90
11666;DHT22;5889;51.350;6.708;2023-02-25T08:25:32;3.90;99.90
11666;DHT22;5889;51.350;6.708;2023-02-25T08:27:59;3.80;99.90
11666;DHT22;5889;51.350;6.708;2023-02-25T08:30:26;3.80;99.90
11666;DHT22;5889;51.350;6.708;2023-02-25T08:32:53;3.70;99.90
11666;DHT22;5889;51.350;6.708;2023-02-25T08:35:22;3.70;99.90
11666;DHT22;5889;51.350;6.708;2023-02-25T08:37:50;3.70;99.90
11666;DHT22;5889;51.350;6.708;2023-02-25T08:40:18;3.70;99.90
11666;DHT22;5889;51.350;6.708;2023-02-25T08:42:45;3.70;99.90
11666;DHT22;5889;51.350;6.708;2023-02-25T08:45:12;3.80;99.90
11666;DHT22;5889;51.350;6.708;2023-02-25T08:47:39;3.90;99.90
11666;DHT22;5889;51.350;6.708;2023-02-25T08:50:07;3.90;99.90
11666;DHT22;5889;51.350;6.708;2023-02-25T08:52:34;3.90;99.90
11666;DHT22;5889;51.350;6.708;2023-02-25T08:55:02;4.00;99.90
11666;DHT22;5889;51.350;6.708;2023-02-25T08:57:31;4.00;99.90
11666;DHT22;5889;51.350;6.708;2023-02-25T08:59:58;4.10;99.90
11666;DHT22;5889;51.350;6.708;2023-02-25T09:02:25;4.10;99.90
11666;DHT22;5889;51.350;6.708;2023-02-25T09:04:52;4.20;99.90
11666;DHT22;5889;51.350;6.708;2023-02-25T09:07:19;4.30;99.90
11666;DHT22;5889;51.350;6.708;2023-02-25T09:09:46;4.30;99.90
11666;DHT22;5889;51.350;6.708;2023-02-25T09:12:13;4.40;99.90
11666;DHT22;5889;51.350;6.708;2023-02-25T09:14:42;4.50;99.90
11666;DHT22;5889;51.350;6.708;2023-02-25T09:17:09;4.50;99.90
11666;DHT22;5889;51.350;6.708;2023-02-25T09:19:36;4.50;99.90
11666;DHT22;5889;51.350;6.708;2023-02-25T09:22:04;4.40;99.90
11666;DHT22;5889;51.350;6.708;2023-02-25T09:24:31;4.60;99.90
11666;DHT22;5889;51.350;6.708;2023-02-25T09:26:59;4.60;99.90
11666;DHT22;5889;51.350;6.708;2023-02-25T09:29:26;4.70;99.90
11666;DHT22;5889;51.350;6.708;2023-02-25T09:31:54;4.80;99.90
11666;DHT22;5889;51.350;6.708;2023-02-25T09:34:21;4.80;99.90
11666;DHT22;5889;51.350;6.708;2023-02-25T09:36:48;4.90;99.90
11666;DHT22;5889;51.350;6.708;2023-02-25T09:39:15;5.00;99.90
11666;DHT22;5889;51.350;6.708;2023-02-25T09:41:48;5.00;99.90
11666;DHT22;5889;51.350;6.708;2023-02-25T09:44:18;5.10;99.90
11666;DHT22;5889;51.350;6.708;2023-02-25T09:46:48;5.10;99.90
11666;DHT22;5889;51.350;6.708;2023-02-25T09:49:23;5.10;99.90
11666;DHT22;5889;51.350;6.708;2023-02-25T09:51:56;5.00;99.90
11666;DHT22;5889;51.350;6.708;2023-02-25T09:54:29;4.80;99.90
11666;DHT22;5889;51.350;6.708;2023-02-25T09:57:00;4.50;99.90
11666;DHT22;5889;51.350;6.708;2023-02-25T09:59:29;4.20;99.90
11666;DHT22;5889;51.350;6.708;2023-02-25T10:01:58;4.10;99.90
11666;DHT22;5889;51.350;6.708;2023-02-25T10:04:36;4.00;99.90
11666;DHT22;5889;51.350;6.708;2023-02-25T10:07:10;4.10;99.90
11666;DHT22;5889;51.350;6.708;2023-02-25T10:09:48;3.90;99.90
11666;DHT22;5889;51.350;6.708;2023-02-25T10:12:23;3.70;99.90
11666;DHT22;5889;51.350;6.708;2023-02-25T10:15:11;3.60;99.90
11666;DHT22;5889;51.350;6.708;2023-02-25T10:17:51;3.50;99.90
11666;DHT22;5889;51.350;6.708;2023-02-25T10:23:38;3.50;99.90
11666;DHT22;5889;51.350;6.708;2023-02-25T10:26:14;3.40;99.90
11666;DHT22;5889;51.350;6.708;2023-02-25T10:28:42;3.20;99.90
11666;DHT22;5889;51.350;6.708;2023-02-25T10:31:14;3.00;99.90
11666;DHT22;5889;51.350;6.708;2023-02-25T10:33:44;2.90;99.90
11666;DHT22;5889;51.350;6.708;2023-02-25T10:36:15;2.90;99.90
11666;DHT22;5889;51.350;6.708;2023-02-25T10:38:45;3.00;99.90
11666;DHT22;5889;51.350;6.708;2023-02-25T10:41:13;3.10;99.90
11666;DHT22;5889;51.350;6.708;2023-02-25T10:43:41;3.20;99.90
11666;DHT22;5889;51.350;6.708;2023-02-25T10:46:13;3.40;99.90
11666;DHT22;5889;51.350;6.708;2023-02-25T10:48:53;3.60;99.90
11666;DHT22;5889;51.350;6.708;2023-02-25T10:51:22;3.80;99.90
11666;DHT22;5889;51.350;6.708;2023-02-25T10:54:04;4.10;99.90
11666;DHT22;5889;51.350;6.708;2023-02-25T10:56:37;4.40;99.90
11666;DHT22;5889;51.350;6.708;2023-02-25T10:59:22;4.60;99.90
11666;DHT22;5889;51.350;6.708;2023-02-25T11:01:51;4.70;99.90
11666;DHT22;5889;51.350;6.708;2023-02-25T11:04:23;4.90;99.90
11666;DHT22;5889;51.350;6.708;2023-02-25T11:06:52;5.10;99.90
11666;DHT22;5889;51.350;6.708;2023-02-25T11:09:32;5.20;99.90
11666;DHT22;5889;51.350;6.708;2023-02-25T11:12:14;5.20;99.90
11666;DHT22;5889;51.350;6.708;2023-02-25T11:14:42;5.10;99.90
11666;DHT22;5889;51.350;6.708;2023-02-25T11:17:14;5.20;99.90
11666;DHT22;5889;51.350;6.708;2023-02-25T11:19:46;5.20;99.90
11666;DHT22;5889;51.350;6.708;2023-02-25T11:22:20;5.30;99.90
11666;DHT22;5889;51.350;6.708;2023-02-25T11:24:55;5.50;99.90
11666;DHT22;5889;51.350;6.708;2023-02-25T11:27:35;5.50;99.90
11666;DHT22;5889;51.350;6.708;2023-02-25T11:30:06;5.50;99.90
11666;DHT22;5889;51.350;6.708;2023-02-25T11:32:34;5.40;99.90
11666;DHT22;5889;51.350;6.708;2023-02-25T11:35:14;5.50;99.90
11666;DHT22;5889;51.350;6.708;2023-02-25T11:37:44;5.60;99.90
11666;DHT22;5889;51.350;6.708;2023-02-25T11:40:21;5.80;99.90
11666;DHT22;5889;51.350;6.708;2023-02-25T11:43:13;5.90;99.90
11666;DHT22;5889;51.350;6.708;2023-02-25T11:45:49;5.80;99.90
11666;DHT22;5889;51.350;6.708;2023-02-25T11:48:19;5.80;99.90
11666;DHT22;5889;51.350;6.708;2023-02-25T11:50:51;5.90;99.90
11666;DHT22;5889;51.350;6.708;2023-02-25T11:53:30;6.00;99.90
11666;DHT22;5889;51.350;6.708;2023-02-25T11:56:05;6.20;99.90
11666;DHT22;5889;51.350;6.708;2023-02-25T11:58:45;6.10;99.90
11666;DHT22;5889;51.350;6.708;2023-02-25T12:01:20;6.00;99.90
11666;DHT22;5889;51.350;6.708;2023-02-25T12:04:05;5.80;99.90
11666;DHT22;5889;51.350;6.708;2023-02-25T12:06:48;5.80;99.90
11666;DHT22;5889;51.350;6.708;2023-02-25T12:09:46;5.80;99.90
11666;DHT22;5889;51.350;6.708;2023-02-25T12:12:37;5.80;99.90
11666;DHT22;5889;51.350;6.708;2023-02-25T12:15:47;6.00;99.90
11666;DHT22;5889;51.350;6.708;2023-02-25T12:24:41;6.50;99.90
11666;DHT22;5889;51.350;6.708;2023-02-25T12:27:44;6.50;99.90
11666;DHT22;5889;51.350;6.708;2023-02-25T12:30:32;6.30;99.90
11666;DHT22;5889;51.350;6.708;2023-02-25T12:33:12;6.20;99.90
11666;DHT22;5889;51.350;6.708;2023-02-25T12:35:54;6.00;99.90
11666;DHT22;5889;51.350;6.708;2023-02-25T12:41:36;5.90;99.90
11666;DHT22;5889;51.350;6.708;2023-02-25T12:47:36;6.40;99.90
11666;DHT22;5889;51.350;6.708;2023-02-25T12:50:23;6.60;99.90
11666;DHT22;5889;51.350;6.708;2023-02-25T12:53:10;6.50;99.90
11666;DHT22;5889;51.350;6.708;2023-02-25T12:55:55;6.50;99.90
11666;DHT22;5889;51.350;6.708;2023-02-25T12:58:32;6.50;99.90
11666;DHT22;5889;51.350;6.708;2023-02-25T13:01:11;6.60;99.90
11666;DHT22;5889;51.350;6.708;2023-02-25T13:04:06;6.60;99.00
11666;DHT22;5889;51.350;6.708;2023-02-25T13:10:01;6.80;98.50
11666;DHT22;5889;51.350;6.708;2023-02-25T13:12:59;6.70;98.50
11666;DHT22;5889;51.350;6.708;2023-02-25T13:15:35;6.50;98.80
11666;DHT22;5889;51.350;6.708;2023-02-25T13:18:21;6.30;98.80
11666;DHT22;5889;51.350;6.708;2023-02-25T13:21:09;6.10;97.50
11666;DHT22;5889;51.350;6.708;2023-02-25T13:23:47;6.00;99.70
11666;DHT22;5889;51.350;6.708;2023-02-25T13:29:36;6.30;99.70
11666;DHT22;5889;51.350;6.708;2023-02-25T13:32:20;6.50;98.30
11666;DHT22;5889;51.350;6.708;2023-02-25T13:35:04;6.60;98.30
11666;DHT22;5889;51.350;6.708;2023-02-25T13:37:43;6.70;97.60
11666;DHT22;5889;51.350;6.708;2023-02-25T13:40:24;6.60;97.70
11666;DHT22;5889;51.350;6.708;2023-02-25T13:43:04;6.50;97.40
11666;DHT22;5889;51.350;6.708;2023-02-25T13:45:55;6.50;97.60
11666;DHT22;5889;51.350;6.708;2023-02-25T13:48:57;6.40;96.80
11666;DHT22;5889;51.350;6.708;2023-02-25T13:54:51;6.00;97.20
11666;DHT22;5889;51.350;6.708;2023-02-25T13:57:36;6.30;97.90
11666;DHT22;5889;51.350;6.708;2023-02-25T14:03:21;6.70;96.10
11666;DHT22;5889;51.350;6.708;2023-02-25T14:06:10;6.70;96.00
11666;DHT22;5889;51.350;6.708;2023-02-25T14:08:55;6.40;96.20
11666;DHT22;5889;51.350;6.708;2023-02-25T14:11:37;6.30;96.00
11666;DHT22;5889;51.350;6.708;2023-02-25T14:14:33;6.20;95.50
11666;DHT22;5889;51.350;6.708;2023-02-25T14:17:23;6.00;94.20
11666;DHT22;5889;51.350;6.708;2023-02-25T14:20:04;6.00;95.00
11666;DHT22;5889;51.350;6.708;2023-02-25T14:22:42;5.90;92.70
11666;DHT22;5889;51.350;6.708;2023-02-25T14:25:26;6.00;93.00
11666;DHT22;5889;51.350;6.708;2023-02-25T14:28:06;6.10;92.50
11666;DHT22;5889;51.350;6.708;2023-02-25T14:30:42;6.10;91.60
11666;DHT22;5889;51.350;6.708;2023-02-25T14:33:48;6.10;91.80
11666;DHT22;5889;51.350;6.708;2023-02-25T14:39:31;6.10;93.20
11666;DHT22;5889;51.350;6.708;2023-02-25T14:42:12;6.20;90.60
11666;DHT22;5889;51.350;6.708;2023-02-25T14:44:49;6.10;85.10
11666;DHT22;5889;51.350;6.708;2023-02-25T14:47:24;6.00;90.90
11666;DHT22;5889;51.350;6.708;2023-02-25T14:49:57;6.00;88.30
11666;DHT22;5889;51.350;6.708;2023-02-25T14:52:38;6.10;90.40
11666;DHT22;5889;51.350;6.708;2023-02-25T14:55:27;6.10;91.40
11666;DHT22;5889;51.350;6.708;2023-02-25T15:01:27;6.10;91.30
11666;DHT22;5889;51.350;6.708;2023-02-25T15:04:21;6.10;92.10
11666;DHT22;5889;51.350;6.708;2023-02-25T15:06:58;6.10;91.00
11666;DHT22;5889;51.350;6.708;2023-02-25T15:09:43;6.10;91.30
11666;DHT22;5889;51.350;6.708;2023-02-25T15:12:36;6.10;91.40
11666;DHT22;5889;51.350;6.708;2023-02-25T15:15:23;6.10;92.20
11666;DHT22;5889;51.350;6.708;2023-02-25T15:18:37;5.90;92.20
11666;DHT22;5889;51.350;6.708;2023-02-25T15:21:28;5.80;91.70
11666;DHT22;5889;51.350;6.708;2023-02-25T15:24:00;5.80;90.80
11666;DHT22;5889;51.350;6.708;2023-02-25T15:26:40;5.80;91.90
11666;DHT22;5889;51.350;6.708;2023-02-25T15:29:20;5.70;90.20
11666;DHT22;5889;51.350;6.708;2023-02-25T15:32:10;5.60;91.30
11666;DHT22;5889;51.350;6.708;2023-02-25T15:34:40;5.60;89.90
11666;DHT22;5889;51.350;6.708;2023-02-25T15:37:25;5.70;91.90
11666;DHT22;5889;51.350;6.708;2023-02-25T15:39:54;5.50;91.50
11666;DHT22;5889;51.350;6.708;2023-02-25T15:42:44;5.50;92.10
11666;DHT22;5889;51.350;6.708;2023-02-25T15:45:37;5.40;91.40
11666;DHT22;5889;51.350;6.708;2023-02-25T15:48:29;5.40;91.30
11666;DHT22;5889;51.350;6.708;2023-02-25T15:50:58;5.50;91.50
11666;DHT22;5889;51.350;6.708;2023-02-25T15:53:53;5.50;90.00
11666;DHT22;5889;51.350;6.708;2023-02-25T15:56:28;5.40;87.50
11666;DHT22;5889;51.350;6.708;2023-02-25T15:58:56;5.40;89.20
11666;DHT22;5889;51.350;6.708;2023-02-25T16:01:37;5.40;90.20
11666;DHT22;5889;51.350;6.708;2023-02-25T16:04:45;5.40;91.30
11666;DHT22;5889;51.350;6.708;2023-02-25T16:07:15;5.30;92.50
11666;DHT22;5889;51.350;6.708;2023-02-25T16:09:47;5.30;92.70
11666;DHT22;5889;51.350;6.708;2023-02-25T16:12:15;5.30;91.50
11666;DHT22;5889;51.350;6.708;2023-02-25T16:14:43;5.30;91.40
11666;DHT22;5889;51.350;6.708;2023-02-25T16:17:17;5.20;90.00
11666;DHT22;5889;51.350;6.708;2023-02-25T16:19:46;5.20;91.00
11666;DHT22;5889;51.350;6.708;2023-02-25T16:22:18;5.20;90.70
11666;DHT22;5889;51.350;6.708;2023-02-25T16:24:47;5.20;90.00
11666;DHT22;5889;51.350;6.708;2023-02-25T16:27:25;5.10;90.90
11666;DHT22;5889;51.350;6.708;2023-02-25T16:29:59;5.10;90.50
11666;DHT22;5889;51.350;6.708;2023-02-25T16:32:36;5.10;90.40
11666;DHT22;5889;51.350;6.708;2023-02-25T16:35:09;5.00;90.60
11666;DHT22;5889;51.350;6.708;2023-02-25T16:37:43;5.00;90.90
11666;DHT22;5889;51.350;6.708;2023-02-25T16:40:16;4.90;91.30
11666;DHT22;5889;51.350;6.708;2023-02-25T16:42:46;4.90;92.90
11666;DHT22;5889;51.350;6.708;2023-02-25T16:45:23;4.80;92.90
11666;DHT22;5889;51.350;6.708;2023-02-25T16:47:56;4.80;92.90
11666;DHT22;5889;51.350;6.708;2023-02-25T16:50:28;4.80;92.30
11666;DHT22;5889;51.350;6.708;2023-02-25T16:52:57;4.80;91.80
11666;DHT22;5889;51.350;6.708;2023-02-25T16:55:28;4.70;93.50
11666;DHT22;5889;51.350;6.708;2023-02-25T16:58:05;4.60;92.90
11666;DHT22;5889;51.350;6.708;2023-02-25T17:00:33;4.50;93.70
11666;DHT22;5889;51.350;6.708;2023-02-25T17:03:03;4.40;94.10
11666;DHT22;5889;51.350;6.708;2023-02-25T17:05:33;4.40;93.80
11666;DHT22;5889;51.350;6.708;2023-02-25T17:08:04;4.40;94.30
11666;DHT22;5889;51.350;6.708;2023-02-25T17:10:36;4.30;94.60
11666;DHT22;5889;51.350;6.708;2023-02-25T17:13:13;4.30;94.20
11666;DHT22;5889;51.350;6.708;2023-02-25T17:15:41;4.20;93.20